LEBA/ODB METAR and TAF weather

Enter ICAO airport designator
Station Type Date Time Source
LEBA METAR 2019/04/25 08:00 UTC NOAA

LEBA 250800Z 24007KT 210V290 9000 FEW006 14/11 Q1015


Station Type Date Time Source
LEBA Decoded METAR 2019/04/25 08:00 UTC NOAA

Cordoba / Aeropuerto, Spain (LEBA) 37-51N 004-51W 92M
Apr 25, 2019 - 04:00 AM EDT / 2019.04.25 0800 UTC
Wind: from the WSW (240 degrees) at 8 MPH (7 KT) (direction variable):0
Visibility: 5 mile(s):0
Sky conditions: mostly clear
Temperature: 57 F (14 C)
Dew Point: 51 F (11 C)
Relative Humidity: 82%
Pressure (altimeter): 29.97 in. Hg (1015 hPa)
ob: LEBA 250800Z 24007KT 210V290 9000 FEW006 14/11 Q1015
cycle: 8

Station Type Date Time Source
LEBA TAF 2015/01/24 09:27 UTC NOAA

TAF TAF LEBA 240800Z 2409/2421 VRB02KT CAVOK

Example: see airport list